AAL840 KMCO-KMIA
Flight info
| Callsign | AAL840 |
|---|---|
| Flight time | 0h 44m |
| Altitude | 26000 |
| Route | DDANY3 DDANY CSTAL3 |
| Aircraft | B738/M-SDE2E3FGHIRWXY/LB1 |
Departure
| Time | 2026-04-26 10:32 |
|---|---|
| Airport | Orlando International Airport (KMCO) |
Arrival
| Time | 2026-04-26 11:16 |
|---|---|
| Airport | Miami International Airport (KMIA) |
| Time | Latitude | Longitude | Altitude | Speed | Heading |
|---|---|---|---|---|---|
| 2026-04-26 09:55 | 28.42583 | -81.31458 | 101 ft | 0 kts | 323° |
| 2026-04-26 10:18 | 28.42582 | -81.31457 | 101 ft | 2 kts | 323° |
| 2026-04-26 10:18 | 28.42561 | -81.31442 | 101 ft | 4 kts | 346° |
| 2026-04-26 10:18 | 28.42536 | -81.31442 | 99 ft | 4 kts | 31° |
| 2026-04-26 10:19 | 28.42523 | -81.31458 | 99 ft | 1 kts | 77° |
| 2026-04-26 10:22 | 28.42525 | -81.31449 | 99 ft | 4 kts | 78° |
| 2026-04-26 10:22 | 28.42519 | -81.31397 | 100 ft | 9 kts | 119° |
| 2026-04-26 10:22 | 28.42451 | -81.31315 | 98 ft | 17 kts | 137° |
| 2026-04-26 10:23 | 28.42354 | -81.31283 | 98 ft | 14 kts | 179° |
| 2026-04-26 10:23 | 28.42274 | -81.31239 | 99 ft | 14 kts | 118° |
| 2026-04-26 10:23 | 28.42252 | -81.31137 | 100 ft | 13 kts | 99° |
| 2026-04-26 10:23 | 28.42238 | -81.31019 | 100 ft | 17 kts | 94° |
| 2026-04-26 10:24 | 28.42240 | -81.30885 | 101 ft | 17 kts | 86° |
| 2026-04-26 10:24 | 28.42250 | -81.30756 | 103 ft | 16 kts | 86° |
| 2026-04-26 10:24 | 28.42259 | -81.30626 | 103 ft | 18 kts | 85° |
| 2026-04-26 10:24 | 28.42270 | -81.30487 | 103 ft | 17 kts | 86° |
| 2026-04-26 10:25 | 28.42327 | -81.30393 | 100 ft | 14 kts | 26° |
| 2026-04-26 10:25 | 28.42359 | -81.30294 | 101 ft | 14 kts | 87° |
| 2026-04-26 10:25 | 28.42360 | -81.30187 | 102 ft | 13 kts | 90° |
| 2026-04-26 10:25 | 28.42362 | -81.30057 | 103 ft | 21 kts | 88° |
| 2026-04-26 10:26 | 28.42364 | -81.29880 | 102 ft | 23 kts | 90° |
| 2026-04-26 10:26 | 28.42371 | -81.29736 | 101 ft | 12 kts | 66° |
| 2026-04-26 10:26 | 28.42440 | -81.29703 | 101 ft | 11 kts | 0° |
| 2026-04-26 10:26 | 28.42534 | -81.29703 | 101 ft | 18 kts | 359° |
| 2026-04-26 10:27 | 28.42672 | -81.29709 | 100 ft | 20 kts | 358° |
| 2026-04-26 10:27 | 28.42810 | -81.29706 | 103 ft | 19 kts | 359° |
| 2026-04-26 10:27 | 28.42943 | -81.29708 | 104 ft | 19 kts | 359° |
| 2026-04-26 10:27 | 28.43072 | -81.29708 | 103 ft | 18 kts | 360° |
| 2026-04-26 10:28 | 28.43202 | -81.29710 | 104 ft | 18 kts | 360° |
| 2026-04-26 10:28 | 28.43328 | -81.29711 | 106 ft | 18 kts | 0° |
| 2026-04-26 10:28 | 28.43450 | -81.29713 | 104 ft | 17 kts | 359° |
| 2026-04-26 10:28 | 28.43533 | -81.29703 | 102 ft | 10 kts | 32° |
| 2026-04-26 10:29 | 28.43545 | -81.29688 | 101 ft | 0 kts | 59° |
| 2026-04-26 10:29 | 28.43550 | -81.29670 | 102 ft | 8 kts | 77° |
| 2026-04-26 10:30 | 28.43540 | -81.29593 | 103 ft | 10 kts | 132° |
| 2026-04-26 10:30 | 28.43480 | -81.29585 | 105 ft | 8 kts | 183° |
| 2026-04-26 10:30 | 28.43470 | -81.29585 | 105 ft | 0 kts | 179° |
| 2026-04-26 10:31 | 28.43464 | -81.29585 | 105 ft | 8 kts | 180° |
| 2026-04-26 10:31 | 28.43170 | -81.29581 | 106 ft | 77 kts | 179° |
| 2026-04-26 10:31 | 28.42410 | -81.29573 | 99 ft | 139 kts | 180° |
| 2026-04-26 10:31 | 28.41346 | -81.29514 | 432 ft | 160 kts | 171° |
| 2026-04-26 10:32 | 28.40174 | -81.29216 | 918 ft | 178 kts | 173° |
| 2026-04-26 10:32 | 28.38943 | -81.29144 | 1534 ft | 188 kts | 188° |
| 2026-04-26 10:32 | 28.37538 | -81.29208 | 1739 ft | 217 kts | 169° |
| 2026-04-26 10:32 | 28.36155 | -81.28297 | 1964 ft | 246 kts | 142° |
| 2026-04-26 10:33 | 28.34757 | -81.27054 | 2436 ft | 260 kts | 146° |
| 2026-04-26 10:33 | 28.33497 | -81.25548 | 3112 ft | 271 kts | 117° |
| 2026-04-26 10:33 | 28.33072 | -81.23464 | 3914 ft | 274 kts | 98° |
| 2026-04-26 10:33 | 28.32817 | -81.21287 | 4629 ft | 280 kts | 100° |
| 2026-04-26 10:34 | 28.32529 | -81.19080 | 5336 ft | 284 kts | 100° |
| 2026-04-26 10:34 | 28.32232 | -81.16854 | 6081 ft | 287 kts | 100° |
| 2026-04-26 10:34 | 28.31931 | -81.14635 | 6776 ft | 290 kts | 100° |
| 2026-04-26 10:34 | 28.31619 | -81.12358 | 7486 ft | 293 kts | 100° |
| 2026-04-26 10:35 | 28.31302 | -81.10064 | 8189 ft | 295 kts | 99° |
| 2026-04-26 10:35 | 28.30981 | -81.07753 | 8899 ft | 298 kts | 99° |
| 2026-04-26 10:35 | 28.30656 | -81.05422 | 9605 ft | 301 kts | 99° |
| 2026-04-26 10:35 | 28.30325 | -81.03057 | 10240 ft | 306 kts | 99° |
| 2026-04-26 10:36 | 28.29980 | -81.00593 | 10438 ft | 327 kts | 99° |
| 2026-04-26 10:36 | 28.29611 | -80.97963 | 10604 ft | 348 kts | 99° |
| 2026-04-26 10:36 | 28.29221 | -80.95179 | 10834 ft | 364 kts | 99° |
| 2026-04-26 10:36 | 28.28817 | -80.92310 | 11325 ft | 371 kts | 99° |
| 2026-04-26 10:37 | 28.28408 | -80.89409 | 11945 ft | 374 kts | 99° |
| 2026-04-26 10:37 | 28.27962 | -80.86483 | 12568 ft | 378 kts | 103° |
| 2026-04-26 10:37 | 28.27142 | -80.83636 | 13180 ft | 382 kts | 112° |
| 2026-04-26 10:37 | 28.26109 | -80.80847 | 13805 ft | 386 kts | 113° |
| 2026-04-26 10:38 | 28.25059 | -80.78029 | 14350 ft | 390 kts | 112° |
| 2026-04-26 10:38 | 28.24018 | -80.75173 | 14913 ft | 394 kts | 112° |
| 2026-04-26 10:38 | 28.22980 | -80.72286 | 15497 ft | 398 kts | 112° |
| 2026-04-26 10:38 | 28.21732 | -80.69467 | 16028 ft | 403 kts | 127° |
| 2026-04-26 10:39 | 28.19701 | -80.67295 | 16582 ft | 404 kts | 148° |
| 2026-04-26 10:39 | 28.17165 | -80.65955 | 17135 ft | 404 kts | 166° |
| 2026-04-26 10:39 | 28.14441 | -80.65118 | 17661 ft | 408 kts | 167° |
| 2026-04-26 10:39 | 28.11667 | -80.64321 | 18171 ft | 413 kts | 168° |
| 2026-04-26 10:40 | 28.08900 | -80.63536 | 18601 ft | 417 kts | 168° |
| 2026-04-26 10:40 | 28.06072 | -80.62723 | 19075 ft | 420 kts | 168° |
| 2026-04-26 10:40 | 28.03230 | -80.61892 | 19514 ft | 425 kts | 167° |
| 2026-04-26 10:40 | 28.00352 | -80.61040 | 19913 ft | 430 kts | 167° |
| 2026-04-26 10:41 | 27.97448 | -80.60173 | 20377 ft | 433 kts | 167° |
| 2026-04-26 10:41 | 27.94518 | -80.59295 | 20843 ft | 436 kts | 167° |
| 2026-04-26 10:41 | 27.91569 | -80.58410 | 21286 ft | 440 kts | 167° |
| 2026-04-26 10:41 | 27.88593 | -80.57518 | 21710 ft | 444 kts | 167° |
| 2026-04-26 10:42 | 27.85598 | -80.56621 | 22141 ft | 448 kts | 167° |
| 2026-04-26 10:42 | 27.82577 | -80.55717 | 22556 ft | 451 kts | 167° |
| 2026-04-26 10:42 | 27.79519 | -80.54802 | 22970 ft | 455 kts | 167° |
| 2026-04-26 10:42 | 27.76450 | -80.53885 | 23369 ft | 458 kts | 167° |
| 2026-04-26 10:43 | 27.73346 | -80.52959 | 23671 ft | 464 kts | 167° |
| 2026-04-26 10:43 | 27.70215 | -80.52023 | 23936 ft | 468 kts | 167° |
| 2026-04-26 10:43 | 27.67055 | -80.51080 | 24327 ft | 469 kts | 167° |
| 2026-04-26 10:43 | 27.63951 | -80.50087 | 24727 ft | 470 kts | 164° |
| 2026-04-26 10:44 | 27.60847 | -80.48910 | 25120 ft | 472 kts | 162° |
| 2026-04-26 10:44 | 27.57757 | -80.47650 | 25567 ft | 471 kts | 161° |
| 2026-04-26 10:44 | 27.54676 | -80.46373 | 25953 ft | 472 kts | 161° |
| 2026-04-26 10:44 | 27.51582 | -80.45102 | 25936 ft | 474 kts | 162° |
| 2026-04-26 10:45 | 27.48482 | -80.43847 | 25947 ft | 471 kts | 162° |
| 2026-04-26 10:45 | 27.45413 | -80.42621 | 25947 ft | 467 kts | 162° |
| 2026-04-26 10:45 | 27.42338 | -80.41403 | 25958 ft | 468 kts | 162° |
| 2026-04-26 10:45 | 27.39254 | -80.40187 | 25954 ft | 469 kts | 162° |
| 2026-04-26 10:46 | 27.36165 | -80.38969 | 25951 ft | 470 kts | 162° |
| 2026-04-26 10:46 | 27.33080 | -80.37753 | 25950 ft | 471 kts | 162° |
| 2026-04-26 10:46 | 27.29974 | -80.36528 | 25947 ft | 471 kts | 162° |
| 2026-04-26 10:46 | 27.26919 | -80.35321 | 25925 ft | 458 kts | 162° |
| 2026-04-26 10:47 | 27.23954 | -80.34151 | 25776 ft | 447 kts | 162° |
| 2026-04-26 10:47 | 27.21039 | -80.33003 | 25437 ft | 442 kts | 162° |
| 2026-04-26 10:47 | 27.18141 | -80.31871 | 25026 ft | 439 kts | 162° |
| 2026-04-26 10:47 | 27.15268 | -80.30756 | 24621 ft | 436 kts | 162° |
| 2026-04-26 10:48 | 27.12404 | -80.29646 | 24176 ft | 434 kts | 162° |
| 2026-04-26 10:48 | 27.09596 | -80.28559 | 23751 ft | 432 kts | 162° |
| 2026-04-26 10:48 | 27.06753 | -80.27457 | 23290 ft | 431 kts | 162° |
| 2026-04-26 10:48 | 27.03924 | -80.26361 | 22815 ft | 428 kts | 162° |
| 2026-04-26 10:49 | 27.01119 | -80.25273 | 22376 ft | 425 kts | 162° |
| 2026-04-26 10:49 | 26.98327 | -80.24191 | 21944 ft | 422 kts | 162° |
| 2026-04-26 10:49 | 26.95562 | -80.23120 | 21521 ft | 419 kts | 162° |
| 2026-04-26 10:49 | 26.92816 | -80.22057 | 21104 ft | 416 kts | 162° |
| 2026-04-26 10:50 | 26.90093 | -80.21003 | 20686 ft | 413 kts | 162° |
| 2026-04-26 10:50 | 26.88298 | -80.20309 | 20420 ft | 411 kts | 162° |
| 2026-04-26 10:50 | 26.84721 | -80.18936 | 19859 ft | 400 kts | 163° |
| 2026-04-26 10:50 | 26.82112 | -80.17965 | 19471 ft | 393 kts | 163° |
| 2026-04-26 10:51 | 26.79523 | -80.17013 | 19081 ft | 391 kts | 163° |
| 2026-04-26 10:51 | 26.74381 | -80.15116 | 18318 ft | 386 kts | 163° |
| 2026-04-26 10:51 | 26.71840 | -80.14175 | 17875 ft | 384 kts | 163° |
| 2026-04-26 10:52 | 26.69285 | -80.13327 | 17464 ft | 380 kts | 168° |
| 2026-04-26 10:52 | 26.66752 | -80.12659 | 17095 ft | 367 kts | 169° |
| 2026-04-26 10:52 | 26.64291 | -80.12033 | 16700 ft | 357 kts | 169° |
| 2026-04-26 10:52 | 26.61905 | -80.11408 | 16374 ft | 357 kts | 169° |
| 2026-04-26 10:53 | 26.59479 | -80.10760 | 16007 ft | 358 kts | 169° |
| 2026-04-26 10:53 | 26.57048 | -80.10141 | 15639 ft | 359 kts | 169° |
| 2026-04-26 10:53 | 26.54617 | -80.09540 | 15263 ft | 357 kts | 170° |
| 2026-04-26 10:54 | 26.49802 | -80.08347 | 14513 ft | 353 kts | 170° |
| 2026-04-26 10:54 | 26.47411 | -80.07751 | 14150 ft | 351 kts | 170° |
| 2026-04-26 10:54 | 26.45027 | -80.07170 | 13775 ft | 349 kts | 171° |
| 2026-04-26 10:54 | 26.42638 | -80.06659 | 13349 ft | 348 kts | 172° |
| 2026-04-26 10:55 | 26.40273 | -80.06171 | 13031 ft | 341 kts | 172° |
| 2026-04-26 10:55 | 26.37985 | -80.05655 | 12887 ft | 329 kts | 169° |
| 2026-04-26 10:55 | 26.35805 | -80.05052 | 12745 ft | 318 kts | 168° |
| 2026-04-26 10:55 | 26.34394 | -80.04651 | 12670 ft | 315 kts | 168° |
| 2026-04-26 10:56 | 26.31570 | -80.03855 | 12494 ft | 311 kts | 168° |
| 2026-04-26 10:56 | 26.29466 | -80.03273 | 12370 ft | 313 kts | 169° |
| 2026-04-26 10:56 | 26.27348 | -80.02693 | 12246 ft | 313 kts | 169° |
| 2026-04-26 10:56 | 26.25210 | -80.02270 | 12091 ft | 311 kts | 184° |
| 2026-04-26 10:57 | 26.23103 | -80.02630 | 11993 ft | 303 kts | 195° |
| 2026-04-26 10:57 | 26.21071 | -80.03117 | 11850 ft | 303 kts | 195° |
| 2026-04-26 10:57 | 26.19000 | -80.03614 | 11730 ft | 304 kts | 195° |
| 2026-04-26 10:57 | 26.16928 | -80.04103 | 11607 ft | 305 kts | 195° |
| 2026-04-26 10:58 | 26.14846 | -80.04588 | 11476 ft | 305 kts | 194° |
| 2026-04-26 10:58 | 26.12761 | -80.05068 | 11347 ft | 306 kts | 194° |
| 2026-04-26 10:58 | 26.10678 | -80.05544 | 11220 ft | 306 kts | 194° |
| 2026-04-26 10:58 | 26.08607 | -80.06016 | 11080 ft | 301 kts | 194° |
| 2026-04-26 10:59 | 26.07259 | -80.06323 | 10998 ft | 297 kts | 194° |
| 2026-04-26 10:59 | 26.05233 | -80.06819 | 10849 ft | 299 kts | 196° |
| 2026-04-26 10:59 | 26.03196 | -80.07352 | 10688 ft | 301 kts | 196° |
| 2026-04-26 10:59 | 26.01149 | -80.07894 | 10523 ft | 303 kts | 196° |
| 2026-04-26 11:00 | 25.99098 | -80.08432 | 10342 ft | 300 kts | 196° |
| 2026-04-26 11:00 | 25.97089 | -80.08956 | 10167 ft | 292 kts | 196° |
| 2026-04-26 11:00 | 25.95147 | -80.09459 | 10002 ft | 283 kts | 196° |
| 2026-04-26 11:00 | 25.93240 | -80.09954 | 9862 ft | 281 kts | 196° |
| 2026-04-26 11:01 | 25.91380 | -80.10588 | 9683 ft | 279 kts | 207° |
| 2026-04-26 11:01 | 25.89654 | -80.11550 | 9543 ft | 277 kts | 211° |
| 2026-04-26 11:01 | 25.87958 | -80.12580 | 9393 ft | 277 kts | 211° |
| 2026-04-26 11:01 | 25.86264 | -80.13608 | 9237 ft | 277 kts | 211° |
| 2026-04-26 11:02 | 25.84565 | -80.14623 | 9081 ft | 278 kts | 210° |
| 2026-04-26 11:02 | 25.82881 | -80.15616 | 8928 ft | 278 kts | 210° |
| 2026-04-26 11:02 | 25.81172 | -80.16615 | 8773 ft | 278 kts | 210° |
| 2026-04-26 11:02 | 25.79458 | -80.17609 | 8620 ft | 278 kts | 209° |
| 2026-04-26 11:03 | 25.77743 | -80.18600 | 8469 ft | 278 kts | 209° |
| 2026-04-26 11:03 | 25.76029 | -80.19589 | 8319 ft | 278 kts | 209° |
| 2026-04-26 11:03 | 25.74309 | -80.20581 | 8157 ft | 277 kts | 210° |
| 2026-04-26 11:03 | 25.72825 | -80.21878 | 7943 ft | 272 kts | 235° |
| 2026-04-26 11:04 | 25.72018 | -80.23745 | 7703 ft | 268 kts | 255° |
| 2026-04-26 11:04 | 25.71591 | -80.25755 | 7445 ft | 267 kts | 257° |
| 2026-04-26 11:04 | 25.71208 | -80.27770 | 7167 ft | 267 kts | 261° |
| 2026-04-26 11:04 | 25.71049 | -80.29821 | 6898 ft | 267 kts | 267° |
| 2026-04-26 11:05 | 25.70985 | -80.31882 | 6614 ft | 267 kts | 268° |
| 2026-04-26 11:05 | 25.70922 | -80.33943 | 6344 ft | 268 kts | 267° |
| 2026-04-26 11:05 | 25.70847 | -80.36005 | 6053 ft | 268 kts | 266° |
| 2026-04-26 11:05 | 25.70758 | -80.38064 | 5777 ft | 268 kts | 266° |
| 2026-04-26 11:06 | 25.70663 | -80.40127 | 5484 ft | 267 kts | 266° |
| 2026-04-26 11:06 | 25.70566 | -80.42182 | 5206 ft | 266 kts | 266° |
| 2026-04-26 11:06 | 25.70463 | -80.44212 | 5051 ft | 262 kts | 265° |
| 2026-04-26 11:06 | 25.70302 | -80.46219 | 5013 ft | 259 kts | 264° |
| 2026-04-26 11:07 | 25.70120 | -80.48198 | 4801 ft | 258 kts | 263° |
| 2026-04-26 11:07 | 25.69934 | -80.50146 | 4555 ft | 256 kts | 263° |
| 2026-04-26 11:07 | 25.69756 | -80.52102 | 4304 ft | 254 kts | 264° |
| 2026-04-26 11:07 | 25.69589 | -80.54034 | 4126 ft | 249 kts | 264° |
| 2026-04-26 11:08 | 25.69431 | -80.55895 | 4038 ft | 234 kts | 264° |
| 2026-04-26 11:08 | 25.69416 | -80.57626 | 3990 ft | 216 kts | 281° |
| 2026-04-26 11:08 | 25.70008 | -80.59067 | 3985 ft | 199 kts | 310° |
| 2026-04-26 11:08 | 25.71119 | -80.59953 | 4008 ft | 200 kts | 340° |
| 2026-04-26 11:09 | 25.72480 | -80.60177 | 4010 ft | 198 kts | 359° |
| 2026-04-26 11:09 | 25.73852 | -80.60112 | 3991 ft | 198 kts | 14° |
| 2026-04-26 11:09 | 25.75145 | -80.59608 | 4017 ft | 196 kts | 21° |
| 2026-04-26 11:09 | 25.76414 | -80.59064 | 4013 ft | 195 kts | 25° |
| 2026-04-26 11:10 | 25.77380 | -80.58083 | 3995 ft | 188 kts | 69° |
| 2026-04-26 11:10 | 25.77558 | -80.56731 | 4012 ft | 176 kts | 88° |
| 2026-04-26 11:10 | 25.77633 | -80.55380 | 3997 ft | 174 kts | 88° |
| 2026-04-26 11:10 | 25.77699 | -80.54036 | 3945 ft | 177 kts | 88° |
| 2026-04-26 11:11 | 25.77758 | -80.52658 | 3720 ft | 178 kts | 88° |
| 2026-04-26 11:11 | 25.77814 | -80.51292 | 3482 ft | 176 kts | 88° |
| 2026-04-26 11:11 | 25.77867 | -80.49954 | 3265 ft | 172 kts | 89° |
| 2026-04-26 11:11 | 25.77919 | -80.48649 | 3108 ft | 167 kts | 89° |
| 2026-04-26 11:12 | 25.77969 | -80.47390 | 2843 ft | 158 kts | 89° |
| 2026-04-26 11:12 | 25.78016 | -80.46208 | 2630 ft | 149 kts | 90° |
| 2026-04-26 11:12 | 25.78061 | -80.45074 | 2445 ft | 147 kts | 90° |
| 2026-04-26 11:12 | 25.78106 | -80.43931 | 2271 ft | 150 kts | 90° |
| 2026-04-26 11:13 | 25.78152 | -80.42785 | 2062 ft | 147 kts | 90° |
| 2026-04-26 11:13 | 25.78197 | -80.41656 | 1871 ft | 145 kts | 89° |
| 2026-04-26 11:13 | 25.78244 | -80.40541 | 1688 ft | 145 kts | 90° |
| 2026-04-26 11:13 | 25.78287 | -80.39424 | 1492 ft | 144 kts | 90° |
| 2026-04-26 11:14 | 25.78332 | -80.38313 | 1305 ft | 145 kts | 90° |
| 2026-04-26 11:14 | 25.78377 | -80.37197 | 1118 ft | 144 kts | 89° |
| 2026-04-26 11:14 | 25.78422 | -80.36098 | 932 ft | 144 kts | 89° |
| 2026-04-26 11:14 | 25.78467 | -80.34981 | 742 ft | 145 kts | 89° |
| 2026-04-26 11:15 | 25.78512 | -80.33865 | 549 ft | 144 kts | 88° |
| 2026-04-26 11:15 | 25.78558 | -80.32752 | 361 ft | 144 kts | 88° |
| 2026-04-26 11:15 | 25.78603 | -80.31637 | 164 ft | 145 kts | 86° |
| 2026-04-26 11:15 | 25.78649 | -80.30525 | 18 ft | 139 kts | 88° |
| 2026-04-26 11:16 | 25.78683 | -80.29581 | 15 ft | 102 kts | 86° |
| 2026-04-26 11:16 | 25.78711 | -80.29089 | 14 ft | 35 kts | 85° |
| 2026-04-26 11:16 | 25.78731 | -80.28838 | 14 ft | 27 kts | 77° |
| 2026-04-26 11:16 | 25.78818 | -80.28691 | 15 ft | 16 kts | 50° |
| 2026-04-26 11:17 | 25.78849 | -80.28657 | 13 ft | 0 kts | 46° |
| 2026-04-26 11:18 | 25.78881 | -80.28625 | 14 ft | 14 kts | 38° |
| 2026-04-26 11:18 | 25.78964 | -80.28553 | 14 ft | 14 kts | 27° |
| 2026-04-26 11:18 | 25.79047 | -80.28493 | 14 ft | 15 kts | 32° |
| 2026-04-26 11:19 | 25.79099 | -80.28402 | 16 ft | 15 kts | 107° |
| 2026-04-26 11:19 | 25.79053 | -80.28296 | 15 ft | 15 kts | 120° |
| 2026-04-26 11:19 | 25.79011 | -80.28196 | 15 ft | 14 kts | 88° |
| 2026-04-26 11:19 | 25.79059 | -80.28104 | 16 ft | 14 kts | 60° |
| 2026-04-26 11:20 | 25.79134 | -80.28044 | 14 ft | 13 kts | 24° |
| 2026-04-26 11:20 | 25.79168 | -80.28018 | 15 ft | 7 kts | 60° |
| 2026-04-26 11:20 | 25.79160 | -80.27975 | 14 ft | 4 kts | 116° |
| 2026-04-26 11:20 | 25.79153 | -80.27961 | 16 ft | 1 kts | 120° |
| 2026-04-26 11:21 | 25.79151 | -80.27959 | 16 ft | 0 kts | 120° |